עמוד ראשי
METAR-TAF:

METAR-TAF

שדות תעופה :

Jask, איראן

קו רוחב: 26-38N, קו אורך: 057-46E, גובה: 3מטר

תצפית מזג אוויר נוכחית

הדו"ח נערך לפני 2 שעות ו 25דקות, בשעה 18:00 UTC
רוח 10קשר מכיוון דרום
טמפרטורת 33 צלסיוס
לחות 80%
לחץ 999 hPa
ראות: 5000מטר
אד,

METAR: OIZJ 131800Z 17010KT 5000 BR NSC 33/29 Q0999

זמן: 00:55 (20:25 UTC)


TAF: חסר

תצפיות ותחזיות מזג אוויר לגבי יותר מ- 4,000 שדות תעופה ברחבי העולם. דוחות METAR ו- TAF.

התחנות הזמינות מסומנות בנקודות צהובות ואדומות על גבי המפה.

העבר את העכבר לנקודה הצבעונית על מנת לראות את שם התחנה.

לאחר מכן, לחץ כדי לראות את תוכן ואת תחזיות מזג האוויר.

כדי לשנות את המפה: לחץ על הכפתורים הירוקים עם הפלוס השחור כדי להתקרב; על הכפתור הירוק עם המקף כדי להתרחק; או בחיצים הירוקים למפות סמוכות.


METAR-TAF: